Time;durP1;ratioP1;P1;durP2;ratioP2;P2;SDS_P1;SDS_P2;PMS_P1;PMS_P2;Temp;Humidity;BMP_temperature;BMP_pressure;BME280_temperature;BME280_humidity;BME280_pressure;Samples;Min_cycle;Max_cycle;Signal;HPM_P1;HPM_P2
2022/11/13 00:00:20;;;;;;;22.75;16.45;;;;;;;;;;5017299;28;20453;-48
2022/11/13 00:02:46;;;;;;;22.52;16.92;;;;;;;;;;5017974;28;20340;-46
2022/11/13 00:05:12;;;;;;;24.17;17.65;;;4.00;99.90;;;;;;5015850;28;20045;-46
2022/11/13 00:07:38;;;;;;;24.98;17.35;;;;;;;;;;5016630;28;20378;-47
2022/11/13 00:10:05;;;;;;;18.58;14.48;;;;;;;;;;5016825;28;20041;-50
2022/11/13 00:12:30;;;;;;;22.63;16.08;;;3.90;99.90;;;;;;5014453;28;20033;-46
2022/11/13 00:14:56;;;;;;;26.13;16.60;;;3.90;99.90;;;;;;5017183;28;20055;-48
2022/11/13 00:17:22;;;;;;;22.35;15.02;;;4.00;99.90;;;;;;5017212;28;20049;-47
2022/11/13 00:19:49;;;;;;;20.08;16.02;;;;;;;;;;5016568;28;20344;-47
2022/11/13 00:22:14;;;;;;;23.60;15.82;;;4.00;99.90;;;;;;5017639;28;20512;-47
2022/11/13 00:24:40;;;;;;;21.73;15.32;;;4.10;99.90;;;;;;5015403;28;20072;-47
2022/11/13 00:27:06;;;;;;;24.50;17.52;;;;;;;;;;5017500;28;20734;-45
2022/11/13 00:29:32;;;;;;;28.80;20.00;;;4.30;99.90;;;;;;5016047;28;20041;-47
2022/11/13 00:31:58;;;;;;;29.02;18.67;;;4.30;99.90;;;;;;5017120;28;20402;-46
2022/11/13 00:34:24;;;;;;;20.33;15.77;;;;;;;;;;5013936;28;20048;-47
2022/11/13 00:36:50;;;;;;;21.88;16.17;;;;;;;;;;5016638;28;20067;-45
2022/11/13 00:39:16;;;;;;;20.95;14.88;;;4.10;99.90;;;;;;5013484;28;20053;-48
2022/11/13 00:41:42;;;;;;;18.75;15.18;;;;;;;;;;5013294;28;20414;-47
2022/11/13 00:44:08;;;;;;;20.58;16.67;;;;;;;;;;5015876;28;20041;-46
2022/11/13 00:46:34;;;;;;;25.25;19.02;;;4.30;99.90;;;;;;5015049;28;20041;-46
2022/11/13 00:49:00;;;;;;;35.67;24.23;;;;;;;;;;5015709;28;20087;-48
2022/11/13 00:51:26;;;;;;;33.55;23.20;;;;;;;;;;5014403;28;20037;-49
2022/11/13 00:53:52;;;;;;;34.35;23.92;;;;;;;;;;5045707;28;20117;-50
2022/11/13 00:56:18;;;;;;;38.83;25.77;;;5.00;99.90;;;;;;5017538;28;20045;-46
2022/11/13 00:58:44;;;;;;;37.60;25.63;;;;;;;;;;5014263;28;20038;-46
2022/11/13 01:01:12;;;;;;;35.42;26.60;;;5.10;99.90;;;;;;5021756;28;20493;-48
2022/11/13 01:03:38;;;;;;;37.60;26.67;;;5.20;99.90;;;;;;5019795;28;20075;-46
2022/11/13 01:06:15;;;;;;;41.58;28.70;;;5.30;99.90;;;;;;5022480;28;20472;-48
2022/11/13 01:08:41;;;;;;;41.95;28.23;;;5.40;99.90;;;;;;5020153;28;20069;-46
2022/11/13 01:11:12;;;;;;;40.28;29.70;;;5.60;99.90;;;;;;5022931;28;20120;-47
2022/11/13 01:13:40;;;;;;;37.80;29.63;;;5.50;99.90;;;;;;5017359;28;20049;-46
2022/11/13 01:16:09;;;;;;;36.53;27.60;;;5.70;99.90;;;;;;5023040;28;20038;-46
2022/11/13 01:18:35;;;;;;;40.42;28.73;;;;;;;;;;5020264;28;20048;-48
2022/11/13 01:21:06;;;;;;;38.80;28.15;;;5.70;99.90;;;;;;5021714;28;20179;-47
2022/11/13 01:23:33;;;;;;;37.55;26.92;;;5.80;99.90;;;;;;5018479;28;20116;-48
2022/11/13 01:26:20;;;;;;;40.95;27.35;;;5.70;99.90;;;;;;5019589;28;20037;-49
2022/11/13 01:28:46;;;;;;;38.78;29.23;;;5.70;99.90;;;;;;5020506;28;20099;-47
2022/11/13 01:31:15;;;;;;;37.10;27.45;;;5.80;99.90;;;;;;5022032;28;20048;-49
2022/11/13 01:33:42;;;;;;;35.15;26.67;;;5.90;99.90;;;;;;5018587;28;20503;-48
2022/11/13 01:36:12;;;;;;;37.30;25.73;;;6.00;99.90;;;;;;5017373;28;20068;-49
2022/11/13 01:38:38;;;;;;;36.20;26.85;;;;;;;;;;5017546;28;20069;-49
2022/11/13 01:41:05;;;;;;;39.88;27.05;;;6.10;99.90;;;;;;5020287;28;20052;-48
2022/11/13 01:43:36;;;;;;;36.40;26.00;;;6.10;99.90;;;;;;5017141;28;20060;-47
2022/11/13 01:46:12;;;;;;;32.67;24.40;;;6.10;99.90;;;;;;5018139;28;20168;-50
2022/11/13 01:48:42;;;;;;;33.17;24.98;;;6.20;99.90;;;;;;5018483;28;20034;-48
2022/11/13 01:51:17;;;;;;;35.10;25.33;;;6.30;99.90;;;;;;5018435;28;20536;-47
2022/11/13 01:53:45;;;;;;;33.00;24.25;;;6.20;99.90;;;;;;5017760;28;20442;-46
2022/11/13 01:56:13;;;;;;;30.65;23.50;;;6.30;99.90;;;;;;5020134;28;20083;-50
2022/11/13 01:58:39;;;;;;;31.98;24.13;;;6.40;99.90;;;;;;5017423;28;20049;-48
2022/11/13 02:01:05;;;;;;;37.85;25.08;;;6.30;99.90;;;;;;5017645;28;20111;-51
2022/11/13 02:03:31;;;;;;;34.25;25.08;;;5.80;99.90;;;;;;5018015;28;21186;-47
2022/11/13 02:05:57;;;;;;;35.85;24.00;;;6.30;99.90;;;;;;5017264;28;20045;-47
2022/11/13 02:08:23;;;;;;;30.33;23.00;;;6.40;99.90;;;;;;5018048;28;20041;-52
2022/11/13 02:10:49;;;;;;;28.80;22.05;;;6.40;99.90;;;;;;5015120;28;20585;-47
2022/11/13 02:13:15;;;;;;;27.42;21.55;;;6.30;99.90;;;;;;5018743;28;20134;-48
2022/11/13 02:15:42;;;;;;;38.03;22.88;;;7.20;99.90;;;;;;5019456;28;20185;-48
2022/11/13 02:18:09;;;;;;;29.63;23.15;;;6.50;99.90;;;;;;5016275;28;20040;-48
2022/11/13 02:20:49;;;;;;;28.65;21.33;;;6.30;99.90;;;;;;5019198;28;20041;-45
2022/11/13 02:23:37;;;;;;;28.30;20.13;;;6.30;99.90;;;;;;5021059;28;20064;-47
2022/11/13 02:26:04;;;;;;;29.00;21.58;;;6.30;99.90;;;;;;5018289;28;20072;-49
2022/11/13 02:28:30;;;;;;;29.42;21.75;;;6.30;99.90;;;;;;5018439;28;20816;-51
2022/11/13 02:30:55;;;;;;;33.13;23.50;;;6.20;99.90;;;;;;5018338;28;20755;-46
2022/11/13 02:33:31;;;;;;;30.35;23.60;;;6.20;99.90;;;;;;5017896;28;20037;-47
2022/11/13 02:35:57;;;;;;;29.75;21.95;;;6.30;99.90;;;;;;5016731;28;20435;-46
2022/11/13 02:38:23;;;;;;;39.22;25.30;;;6.00;99.90;;;;;;5018161;28;20050;-47
2022/11/13 02:40:48;;;;;;;33.42;24.48;;;6.10;99.90;;;;;;5020667;28;20056;-46
2022/11/13 02:43:14;;;;;;;32.25;25.17;;;6.50;99.90;;;;;;5018154;28;20037;-48
2022/11/13 02:45:40;;;;;;;30.38;20.95;;;6.00;99.90;;;;;;5015387;28;20044;-50
2022/11/13 02:48:07;;;;;;;32.88;21.48;;;6.00;99.90;;;;;;5017985;28;20052;-50
2022/11/13 02:50:35;;;;;;;29.83;22.50;;;6.10;99.90;;;;;;5021288;28;20041;-47
2022/11/13 02:53:01;;;;;;;30.10;21.85;;;6.00;99.90;;;;;;5015806;28;20041;-50
2022/11/13 02:55:27;;;;;;;30.88;23.13;;;6.10;99.90;;;;;;5017037;28;20037;-50
2022/11/13 02:57:53;;;;;;;31.98;24.40;;;6.10;99.90;;;;;;5017199;28;20049;-50
2022/11/13 03:00:19;;;;;;;31.98;25.02;;;6.10;99.90;;;;;;5018523;28;20087;-47
2022/11/13 03:02:45;;;;;;;35.08;25.00;;;6.20;99.90;;;;;;5020023;28;20094;-46
2022/11/13 03:05:10;;;;;;;32.47;25.67;;;6.00;99.90;;;;;;5015051;28;20064;-48
2022/11/13 03:07:36;;;;;;;35.28;26.70;;;6.10;99.90;;;;;;5017186;28;20529;-48
2022/11/13 03:10:02;;;;;;;40.85;27.02;;;6.00;99.90;;;;;;5015531;28;20403;-46
2022/11/13 03:12:28;;;;;;;34.90;26.27;;;6.10;99.90;;;;;;5015047;28;20076;-49
2022/11/13 03:14:53;;;;;;;32.92;25.67;;;6.10;99.90;;;;;;5016260;28;20044;-48
2022/11/13 03:17:19;;;;;;;32.58;25.80;;;6.10;99.90;;;;;;5020243;28;20044;-46
2022/11/13 03:19:45;;;;;;;35.80;26.05;;;6.10;99.90;;;;;;5020534;28;20448;-47
2022/11/13 03:22:10;;;;;;;34.65;26.75;;;6.20;99.90;;;;;;5018190;28;20660;-48
2022/11/13 03:24:36;;;;;;;37.08;27.73;;;6.20;99.90;;;;;;5016706;28;20591;-49
2022/11/13 03:27:02;;;;;;;33.85;25.42;;;6.30;99.90;;;;;;5019010;28;20043;-47
2022/11/13 03:29:27;;;;;;;35.50;25.58;;;6.10;99.90;;;;;;5012102;28;20662;-47
2022/11/13 03:31:53;;;;;;;41.10;28.33;;;6.20;99.90;;;;;;5015388;28;20179;-47
2022/11/13 03:34:19;;;;;;;35.58;25.40;;;6.60;99.90;;;;;;5014260;28;20132;-47
2022/11/13 03:36:44;;;;;;;31.50;23.92;;;6.10;99.90;;;;;;5016189;28;20219;-48
2022/11/13 03:39:10;;;;;;;37.65;25.85;;;6.10;99.90;;;;;;5016950;28;20042;-48
2022/11/13 03:41:36;;;;;;;32.45;25.52;;;6.20;99.90;;;;;;5016388;28;20891;-48
2022/11/13 03:44:02;;;;;;;32.03;24.38;;;6.10;99.90;;;;;;5017546;28;20051;-50
2022/11/13 03:46:27;;;;;;;35.95;24.63;;;6.20;99.90;;;;;;5016836;28;20041;-47
2022/11/13 03:48:53;;;;;;;33.70;25.17;;;6.00;99.90;;;;;;5015404;28;20662;-46
2022/11/13 03:51:19;;;;;;;32.45;24.65;;;6.00;99.90;;;;;;5016167;28;20041;-46
2022/11/13 03:53:45;;;;;;;31.83;24.95;;;6.00;99.90;;;;;;5018300;28;20045;-49
2022/11/13 03:56:10;;;;;;;35.97;24.35;;;6.40;99.90;;;;;;5017803;28;20037;-49
2022/11/13 03:58:36;;;;;;;31.50;25.33;;;6.10;99.90;;;;;;5015319;28;20037;-50
2022/11/13 04:01:02;;;;;;;35.85;23.60;;;6.10;99.90;;;;;;5017630;28;20623;-48
2022/11/13 04:03:27;;;;;;;31.80;24.00;;;6.00;99.90;;;;;;5017087;28;20509;-49
2022/11/13 04:05:53;;;;;;;31.30;23.67;;;6.10;99.90;;;;;;5014288;28;20049;-46
2022/11/13 04:08:19;;;;;;;35.03;24.45;;;6.30;99.90;;;;;;5012204;28;20049;-48
2022/11/13 04:10:45;;;;;;;31.88;24.73;;;6.30;99.90;;;;;;5015378;28;20057;-47
2022/11/13 04:13:11;;;;;;;31.77;25.63;;;6.30;99.90;;;;;;5015809;28;20179;-47
2022/11/13 04:15:37;;;;;;;32.60;23.58;;;6.30;99.90;;;;;;5015513;28;20041;-47
2022/11/13 04:18:02;;;;;;;32.95;23.52;;;6.40;99.90;;;;;;5017278;28;20155;-48
2022/11/13 04:20:29;;;;;;;31.23;23.33;;;6.40;99.90;;;;;;5018593;28;20136;-52
2022/11/13 04:22:57;;;;;;;29.83;22.17;;;6.40;99.90;;;;;;5017084;28;20041;-47
2022/11/13 04:25:24;;;;;;;30.75;22.13;;;6.20;99.90;;;;;;5016621;28;20116;-50
2022/11/13 04:27:50;;;;;;;26.85;20.63;;;6.40;99.90;;;;;;5012752;28;20076;-51
2022/11/13 04:30:16;;;;;;;26.48;21.48;;;6.40;99.90;;;;;;5016278;28;20037;-52
2022/11/13 04:32:42;;;;;;;30.77;21.00;;;6.40;99.90;;;;;;5015316;28;20496;-48
2022/11/13 04:35:08;;;;;;;26.60;20.88;;;;;;;;;;5014930;28;20038;-49
2022/11/13 04:37:34;;;;;;;26.40;20.52;;;6.40;99.90;;;;;;5016050;28;20061;-47
2022/11/13 04:40:00;;;;;;;25.08;19.55;;;6.50;99.90;;;;;;5017412;28;20413;-47
2022/11/13 04:45:10;;;;;;;23.77;19.40;;;6.40;99.90;;;;;;5012901;28;20056;-46
2022/11/13 04:47:36;;;;;;;28.35;19.85;;;6.50;99.90;;;;;;5015431;28;20061;-49
2022/11/13 04:50:03;;;;;;;27.08;20.13;;;6.30;99.90;;;;;;5013457;28;20048;-49
2022/11/13 04:52:29;;;;;;;27.35;20.48;;;6.70;99.90;;;;;;5015951;28;20037;-48
2022/11/13 04:54:55;;;;;;;26.50;19.45;;;6.50;99.90;;;;;;5014003;28;20037;-48
2022/11/13 04:57:20;;;;;;;25.58;19.63;;;6.40;99.90;;;;;;5018008;28;20041;-46
2022/11/13 04:59:46;;;;;;;25.98;19.20;;;6.40;99.90;;;;;;5015523;28;20545;-50
2022/11/13 05:02:12;;;;;;;22.25;17.95;;;6.30;99.90;;;;;;5014950;28;20280;-47
2022/11/13 05:04:37;;;;;;;26.90;19.85;;;7.20;99.90;;;;;;5016070;28;20146;-49
2022/11/13 05:07:03;;;;;;;24.50;18.60;;;7.20;99.90;;;;;;5014700;28;20046;-46
2022/11/13 05:09:29;;;;;;;22.23;17.63;;;6.30;99.90;;;;;;5017627;28;20124;-47
2022/11/13 05:11:54;;;;;;;26.15;19.02;;;6.40;99.90;;;;;;5015400;28;20125;-49
2022/11/13 05:14:20;;;;;;;24.55;18.77;;;6.50;99.90;;;;;;5013763;28;20578;-50
2022/11/13 05:16:46;;;;;;;24.65;18.60;;;6.40;99.90;;;;;;5014508;28;20095;-48
2022/11/13 05:19:11;;;;;;;23.77;18.20;;;6.50;99.90;;;;;;5012460;28;20410;-48
2022/11/13 05:21:38;;;;;;;22.67;17.45;;;6.40;99.90;;;;;;5015124;28;20034;-48
2022/11/13 05:24:04;;;;;;;25.00;18.48;;;6.20;99.90;;;;;;5014063;28;20048;-48
2022/11/13 05:26:31;;;;;;;21.67;17.63;;;6.40;99.90;;;;;;5015110;28;20076;-47
2022/11/13 05:28:58;;;;;;;23.83;17.85;;;6.40;99.90;;;;;;5014862;28;20045;-49
2022/11/13 05:31:24;;;;;;;23.75;18.33;;;6.90;99.90;;;;;;5014087;28;20033;-51
2022/11/13 05:33:50;;;;;;;23.30;18.38;;;6.40;99.90;;;;;;5016330;28;20405;-48
2022/11/13 05:36:17;;;;;;;24.88;19.52;;;6.20;99.90;;;;;;5013690;28;20060;-52
2022/11/13 05:38:45;;;;;;;23.15;18.42;;;6.70;99.90;;;;;;5014913;28;20057;-49
2022/11/13 05:41:21;;;;;;;25.38;18.77;;;6.30;99.90;;;;;;5014844;28;20053;-47
2022/11/13 05:43:47;;;;;;;26.35;19.25;;;6.20;99.90;;;;;;5015591;28;20120;-50
2022/11/13 05:46:19;;;;;;;23.42;18.00;;;6.10;99.90;;;;;;5019165;28;20126;-47
2022/11/13 05:48:46;;;;;;;23.85;18.85;;;6.90;99.90;;;;;;5018030;28;20454;-48
2022/11/13 05:51:15;;;;;;;24.02;18.73;;;6.00;99.90;;;;;;5019091;28;20480;-51
2022/11/13 05:53:41;;;;;;;24.80;18.85;;;7.20;99.90;;;;;;5015997;28;20049;-48
2022/11/13 05:56:14;;;;;;;21.80;16.48;;;5.90;99.90;;;;;;5021341;28;20042;-49
2022/11/13 05:58:42;;;;;;;26.83;17.67;;;5.90;99.90;;;;;;5015177;28;20064;-47
2022/11/13 06:01:19;;;;;;;26.55;17.60;;;6.10;99.90;;;;;;5023271;28;20048;-50
2022/11/13 06:03:45;;;;;;;23.80;18.50;;;5.90;99.90;;;;;;5016745;28;20285;-45
2022/11/13 06:06:14;;;;;;;25.88;17.80;;;6.00;99.90;;;;;;5020955;28;20049;-45
2022/11/13 06:08:40;;;;;;;23.48;18.17;;;5.80;99.90;;;;;;5020720;28;20709;-47
2022/11/13 06:11:09;;;;;;;24.20;17.30;;;5.70;99.90;;;;;;5026089;28;20049;-46
2022/11/13 06:13:35;;;;;;;24.65;18.45;;;5.80;99.90;;;;;;5018751;28;20247;-50
2022/11/13 06:16:22;;;;;;;23.65;17.40;;;5.90;99.90;;;;;;5016619;28;20111;-49
2022/11/13 06:18:49;;;;;;;21.73;17.08;;;5.80;99.90;;;;;;5018899;28;20677;-50
2022/11/13 06:21:23;;;;;;;30.33;18.08;;;5.70;99.90;;;;;;5021315;28;20103;-45
2022/11/13 06:23:48;;;;;;;26.48;18.13;;;5.60;99.90;;;;;;5020723;28;20818;-45
2022/11/13 06:26:30;;;;;;;23.83;16.63;;;5.80;99.90;;;;;;5016771;28;20041;-46
2022/11/13 06:28:56;;;;;;;22.38;16.90;;;5.60;99.90;;;;;;5017671;28;20523;-49
2022/11/13 06:31:25;;;;;;;23.23;17.25;;;5.70;99.90;;;;;;5019849;28;20033;-47
2022/11/13 06:33:51;;;;;;;28.08;18.02;;;5.70;99.90;;;;;;5017797;28;20048;-49
2022/11/13 06:36:20;;;;;;;21.85;16.88;;;5.70;99.90;;;;;;5017373;28;20048;-47
2022/11/13 06:38:46;;;;;;;22.42;16.77;;;6.60;99.90;;;;;;5020702;28;20060;-50
2022/11/13 06:41:14;;;;;;;24.95;17.50;;;5.70;99.90;;;;;;5017625;28;20399;-46
2022/11/13 06:43:40;;;;;;;23.23;16.58;;;5.90;99.90;;;;;;5017523;28;20406;-50
2022/11/13 06:46:28;;;;;;;26.25;17.33;;;5.90;99.90;;;;;;5015627;28;20743;-45
2022/11/13 06:48:54;;;;;;;22.27;16.23;;;5.80;99.90;;;;;;5014453;28;20073;-48
2022/11/13 06:51:22;;;;;;;26.25;17.20;;;5.70;99.90;;;;;;5017080;28;20046;-48
2022/11/13 06:53:49;;;;;;;23.13;16.27;;;5.80;99.90;;;;;;5014251;28;20383;-48
2022/11/13 06:56:15;;;;;;;22.88;16.27;;;5.60;99.90;;;;;;5015821;28;20037;-47
2022/11/13 06:58:42;;;;;;;23.40;16.75;;;5.80;99.90;;;;;;5013855;28;20068;-47
2022/11/13 07:01:15;;;;;;;23.70;17.50;;;5.90;99.90;;;;;;5018694;28;20045;-46
2022/11/13 07:03:42;;;;;;;25.85;18.23;;;5.70;99.90;;;;;;5016939;28;20033;-48
2022/11/13 07:06:14;;;;;;;24.75;16.52;;;5.80;99.90;;;;;;5017692;28;20091;-50
2022/11/13 07:08:44;;;;;;;23.42;17.05;;;5.90;99.90;;;;;;5016704;28;20517;-45
2022/11/13 07:11:12;;;;;;;24.77;17.63;;;6.00;99.90;;;;;;5018784;28;20075;-47
2022/11/13 07:13:39;;;;;;;24.55;16.33;;;5.90;99.90;;;;;;5015705;28;20531;-46
2022/11/13 07:16:06;;;;;;;20.25;15.77;;;5.80;99.90;;;;;;5015480;28;20510;-46
2022/11/13 07:18:33;;;;;;;22.70;16.92;;;5.90;99.90;;;;;;5016774;28;20041;-45
2022/11/13 07:21:04;;;;;;;22.38;15.88;;;5.80;99.90;;;;;;5018237;28;20133;-46
2022/11/13 07:23:30;;;;;;;22.20;15.63;;;;;;;;;;5015482;28;20132;-49
2022/11/13 07:25:56;;;;;;;23.30;17.38;;;5.60;99.90;;;;;;5014704;28;20052;-47
2022/11/13 07:28:21;;;;;;;24.15;16.33;;;5.80;99.90;;;;;;5017706;28;20053;-50
2022/11/13 07:30:47;;;;;;;19.83;15.25;;;5.80;99.90;;;;;;5017702;28;20041;-44
2022/11/13 07:33:13;;;;;;;24.80;15.77;;;5.80;99.90;;;;;;5017036;28;20048;-46
2022/11/13 07:35:39;;;;;;;24.35;16.48;;;5.60;99.90;;;;;;5015544;28;20052;-47
2022/11/13 07:38:05;;;;;;;21.13;15.80;;;5.80;99.90;;;;;;5015689;28;20107;-45
2022/11/13 07:40:30;;;;;;;21.45;15.65;;;5.60;99.90;;;;;;5017034;28;20053;-45
2022/11/13 07:42:58;;;;;;;23.58;16.95;;;5.80;99.90;;;;;;5017128;28;20071;-46
2022/11/13 07:45:25;;;;;;;22.88;15.40;;;;;;;;;;5015172;28;20048;-46
2022/11/13 07:47:51;;;;;;;18.65;15.55;;;;;;;;;;5017114;28;20049;-48
2022/11/13 07:50:17;;;;;;;22.23;17.02;;;6.00;99.90;;;;;;5015900;28;20060;-47
2022/11/13 07:52:42;;;;;;;21.15;15.23;;;6.00;99.90;;;;;;5018510;28;20053;-45
2022/11/13 07:55:08;;;;;;;23.02;15.07;;;6.10;99.90;;;;;;5014780;28;20037;-45
2022/11/13 07:57:34;;;;;;;27.88;16.90;;;6.30;99.90;;;;;;5021206;28;20703;-49
2022/11/13 08:00:00;;;;;;;20.58;15.40;;;;;;;;;;5015966;28;20103;-46
2022/11/13 08:02:25;;;;;;;19.75;15.43;;;6.20;99.90;;;;;;5014117;28;20735;-46
2022/11/13 08:04:51;;;;;;;19.77;15.73;;;6.30;99.90;;;;;;5014653;28;20529;-49
2022/11/13 08:07:17;;;;;;;19.92;13.85;;;6.50;99.90;;;;;;5014959;28;20045;-47
2022/11/13 08:09:43;;;;;;;18.02;13.75;;;6.50;99.90;;;;;;5015883;28;20045;-49
2022/11/13 08:12:08;;;;;;;17.20;13.45;;;6.80;99.90;;;;;;5020936;28;20037;-45
2022/11/13 08:14:34;;;;;;;21.10;14.15;;;7.00;99.90;;;;;;5015729;28;20033;-50
2022/11/13 08:17:00;;;;;;;17.98;12.80;;;7.20;99.90;;;;;;5015047;28;20045;-46
2022/11/13 08:19:26;;;;;;;18.63;13.70;;;7.50;99.90;;;;;;5016006;28;20110;-47
2022/11/13 08:21:51;;;;;;;18.08;12.43;;;7.90;99.90;;;;;;5018930;28;21026;-48
2022/11/13 08:24:17;;;;;;;17.50;12.52;;;8.60;99.90;;;;;;5018565;28;20052;-45
2022/11/13 08:26:43;;;;;;;14.52;11.43;;;8.20;99.90;;;;;;5016260;28;20041;-44
2022/11/13 08:29:08;;;;;;;14.85;10.57;;;10.00;99.90;;;;;;5015197;28;20552;-45
2022/11/13 08:31:35;;;;;;;16.60;10.75;;;10.60;99.90;;;;;;5016750;28;20037;-47
2022/11/13 08:34:01;;;;;;;14.60;9.98;;;12.20;61.90;;;;;;5014759;28;20410;-46
2022/11/13 08:36:26;;;;;;;12.65;10.25;;;12.50;69.10;;;;;;5015889;28;20107;-47
2022/11/13 08:38:52;;;;;;;13.18;9.82;;;12.70;99.90;;;;;;5014993;28;20048;-49
2022/11/13 08:41:18;;;;;;;13.05;9.20;;;13.70;99.90;;;;;;5012856;28;20036;-45
2022/11/13 08:43:43;;;;;;;11.15;8.25;;;13.90;99.90;;;;;;5017235;28;20045;-44
2022/11/13 08:46:09;;;;;;;11.75;8.68;;;14.30;99.90;;;;;;5017191;28;20053;-48
2022/11/13 08:48:36;;;;;;;12.57;9.43;;;14.90;99.90;;;;;;5015267;28;20142;-46
2022/11/13 08:51:02;;;;;;;11.90;8.80;;;15.20;99.90;;;;;;5016884;28;20044;-45
2022/11/13 08:53:27;;;;;;;13.18;8.95;;;15.30;99.90;;;;;;5012956;28;20037;-45
2022/11/13 08:55:53;;;;;;;11.77;8.57;;;15.60;99.90;;;;;;5014213;28;20045;-46
2022/11/13 08:58:19;;;;;;;10.63;8.27;;;16.10;99.90;;;;;;5016008;28;20452;-44
2022/11/13 09:00:45;;;;;;;11.40;7.75;;;16.20;99.90;;;;;;5017784;28;20073;-46
2022/11/13 09:03:11;;;;;;;9.85;7.32;;;16.30;99.90;;;;;;5012323;28;20130;-44
2022/11/13 09:05:37;;;;;;;10.45;8.35;;;16.60;99.90;;;;;;5013352;28;20128;-44
2022/11/13 09:08:03;;;;;;;10.77;8.38;;;16.80;99.90;;;;;;5008802;28;20051;-48
2022/11/13 09:10:29;;;;;;;11.18;8.00;;;16.80;99.90;;;;;;5016412;28;20049;-44
2022/11/13 09:13:00;;;;;;;9.77;8.00;;;16.60;99.90;;;;;;5012484;28;20287;-44
2022/11/13 09:15:27;;;;;;;10.07;7.55;;;15.70;99.90;;;;;;5014055;28;20193;-44
2022/11/13 09:18:00;;;;;;;9.52;7.78;;;14.70;99.90;;;;;;5012486;28;20144;-47
2022/11/13 09:20:27;;;;;;;9.80;7.43;;;13.60;99.90;;;;;;5015608;28;20045;-45
2022/11/13 09:23:04;;;;;;;9.38;6.90;;;13.30;99.90;;;;;;5019308;28;20528;-46
2022/11/13 09:25:33;;;;;;;9.18;7.10;;;12.90;99.90;;;;;;5016716;28;20453;-46
2022/11/13 09:28:00;;;;;;;11.93;8.88;;;12.40;99.90;;;;;;5020571;28;20033;-43
2022/11/13 09:30:27;;;;;;;10.25;7.50;;;12.00;99.90;;;;;;5018396;28;20049;-47
2022/11/13 09:32:58;;;;;;;11.07;7.78;;;11.90;99.90;;;;;;5021099;28;20041;-46
2022/11/13 09:35:35;;;;;;;10.18;8.13;;;11.80;99.90;;;;;;5020483;28;20132;-46
2022/11/13 09:38:06;;;;;;;9.77;7.03;;;11.80;99.90;;;;;;5015669;28;20049;-46
2022/11/13 09:40:50;;;;;;;9.35;7.10;;;11.60;99.90;;;;;;5017284;28;20083;-50
2022/11/13 09:43:27;;;;;;;9.57;7.47;;;11.40;99.90;;;;;;5016872;28;20469;-45
2022/11/13 09:45:58;;;;;;;12.13;7.78;;;11.20;99.90;;;;;;5022457;28;20053;-45
2022/11/13 09:48:28;;;;;;;10.18;7.38;;;11.20;99.90;;;;;;5018361;28;20116;-45
2022/11/13 09:50:58;;;;;;;10.90;7.22;;;11.20;99.90;;;;;;5023392;28;20044;-49
2022/11/13 09:53:24;;;;;;;13.82;7.50;;;10.80;99.90;;;;;;5018706;28;20642;-48
2022/11/13 09:56:22;;;;;;;9.38;7.40;;;11.00;99.90;;;;;;5018636;28;20057;-44
2022/11/13 09:58:56;;;;;;;9.85;7.00;;;10.80;99.90;;;;;;5016982;28;20521;-45
2022/11/13 10:01:48;;;;;;;11.57;7.57;;;11.00;99.90;;;;;;5014170;28;21073;-45
2022/11/13 10:04:18;;;;;;;10.55;7.82;;;10.90;99.90;;;;;;5017978;28;20103;-46
2022/11/13 10:07:22;;;;;;;11.07;7.70;;;10.60;99.90;;;;;;5016950;28;20146;-49
2022/11/13 10:10:20;;;;;;;10.20;7.32;;;10.70;99.90;;;;;;5018671;28;20041;-45
2022/11/13 10:12:50;;;;;;;9.60;7.50;;;10.80;99.90;;;;;;5018536;28;20548;-47
2022/11/13 10:15:16;;;;;;;9.57;6.95;;;10.70;99.90;;;;;;5020411;28;20041;-48
2022/11/13 10:17:50;;;;;;;9.23;6.45;;;10.90;99.90;;;;;;5017375;28;20069;-45
2022/11/13 10:20:34;;;;;;;10.27;6.70;;;11.30;99.90;;;;;;5018963;28;20383;-44
2022/11/13 10:23:20;;;;;;;9.88;6.95;;;11.10;99.90;;;;;;5015190;28;20052;-45
2022/11/13 10:25:47;;;;;;;11.45;6.97;;;11.00;99.90;;;;;;5014274;28;20046;-44
2022/11/13 10:28:31;;;;;;;10.60;6.90;;;11.10;99.90;;;;;;5017468;28;20041;-44
2022/11/13 10:30:56;;;;;;;12.57;7.55;;;12.50;99.90;;;;;;5014719;28;20049;-45
2022/11/13 10:33:22;;;;;;;10.07;7.55;;;11.20;99.90;;;;;;5016491;28;20554;-48
2022/11/13 10:36:25;;;;;;;9.63;6.82;;;11.20;99.90;;;;;;5019105;28;20037;-47
2022/11/13 10:39:09;;;;;;;10.70;7.13;;;11.40;99.90;;;;;;5049009;28;20056;-44
2022/11/13 10:41:49;;;;;;;9.75;6.32;;;11.40;99.90;;;;;;5016593;28;20629;-44
2022/11/13 10:44:23;;;;;;;9.48;6.70;;;11.40;99.90;;;;;;5019614;28;20449;-44
2022/11/13 10:46:49;;;;;;;13.90;7.40;;;11.50;99.90;;;;;;5019787;28;20047;-46
2022/11/13 10:49:21;;;;;;;9.40;6.43;;;13.80;99.90;;;;;;5018068;28;20210;-44
2022/11/13 10:51:57;;;;;;;9.52;6.45;;;11.90;99.90;;;;;;5017240;28;20041;-48
2022/11/13 10:54:27;;;;;;;8.00;5.70;;;11.80;99.90;;;;;;5018779;28;20037;-44
2022/11/13 10:57:16;;;;;;;8.00;5.60;;;11.70;99.90;;;;;;5020515;28;20095;-49
2022/11/13 10:59:44;;;;;;;8.18;6.00;;;12.00;99.90;;;;;;5016189;28;20041;-47
2022/11/13 11:02:23;;;;;;;10.40;6.78;;;12.20;99.90;;;;;;5016730;28;20169;-44
2022/11/13 11:04:48;;;;;;;8.82;6.90;;;11.90;99.90;;;;;;5015631;28;20417;-44
2022/11/13 11:07:16;;;;;;;8.98;6.80;;;12.10;99.90;;;;;;5016388;28;20041;-44
2022/11/13 11:09:42;;;;;;;10.05;7.25;;;12.40;99.90;;;;;;5019723;28;20079;-47
2022/11/13 11:12:22;;;;;;;9.30;7.00;;;12.10;99.90;;;;;;5017499;28;20837;-46
2022/11/13 11:15:00;;;;;;;11.98;7.32;;;12.30;99.90;;;;;;5017618;28;20041;-45
2022/11/13 11:18:03;;;;;;;9.50;6.90;;;14.30;99.90;;;;;;5019707;28;20140;-47
2022/11/13 11:20:45;;;;;;;10.98;8.00;;;12.40;99.90;;;;;;4973829;28;20074;-44
2022/11/13 11:23:23;;;;;;;10.23;6.80;;;12.40;99.90;;;;;;5015832;28;20064;-46
2022/11/13 11:26:17;;;;;;;9.20;7.20;;;12.20;99.90;;;;;;5017006;28;20045;-45
2022/11/13 11:28:52;;;;;;;10.90;7.05;;;12.20;99.90;;;;;;5017975;28;20445;-45
2022/11/13 11:31:25;;;;;;;10.35;7.15;;;12.20;99.90;;;;;;5016121;28;20056;-44
2022/11/13 11:34:00;;;;;;;9.10;6.95;;;12.00;99.90;;;;;;5015666;28;20060;-46
2022/11/13 11:36:33;;;;;;;11.00;6.60;;;13.80;99.90;;;;;;5015390;28;20205;-46
2022/11/13 11:39:24;;;;;;;8.63;6.30;;;11.90;99.90;;;;;;5018311;28;20418;-47
2022/11/13 11:41:54;;;;;;;9.48;7.05;;;12.10;99.90;;;;;;5016726;28;20064;-46
2022/11/13 11:44:49;;;;;;;9.00;6.72;;;11.90;99.90;;;;;;5017071;28;20045;-44
2022/11/13 11:47:16;;;;;;;10.43;6.90;;;12.70;99.90;;;;;;5010760;28;20119;-45
2022/11/13 11:49:45;;;;;;;10.05;6.93;;;12.30;99.90;;;;;;5014887;28;20041;-47
2022/11/13 11:52:25;;;;;;;10.10;6.97;;;12.50;99.90;;;;;;5016225;28;20045;-48
2022/11/13 11:54:57;;;;;;;9.05;6.50;;;12.50;99.90;;;;;;5014920;28;20041;-44
2022/11/13 11:57:38;;;;;;;9.48;6.72;;;12.60;99.90;;;;;;5015056;28;20060;-46
2022/11/13 12:00:15;;;;;;;11.60;7.30;;;12.80;99.90;;;;;;5017589;28;20073;-44
2022/11/13 12:03:09;;;;;;;9.32;6.85;;;12.80;99.90;;;;;;5015520;28;20033;-47
2022/11/13 12:05:47;;;;;;;10.52;7.57;;;12.80;99.90;;;;;;5013358;28;20049;-45
2022/11/13 12:08:25;;;;;;;8.10;6.22;;;12.80;99.90;;;;;;5017236;28;20168;-48
2022/11/13 12:11:17;;;;;;;8.20;6.45;;;12.80;99.90;;;;;;5015877;28;20569;-46
2022/11/13 12:14:00;;;;;;;10.05;7.03;;;12.90;99.90;;;;;;5014154;28;20041;-48
2022/11/13 12:16:40;;;;;;;11.73;6.80;;;14.80;99.90;;;;;;5015467;28;20053;-48
2022/11/13 12:19:27;;;;;;;10.57;6.93;;;12.80;99.90;;;;;;5016540;28;20147;-45
2022/11/13 12:22:32;;;;;;;8.98;6.35;;;13.00;99.90;;;;;;5013264;28;20171;-44
2022/11/13 12:25:15;;;;;;;8.65;6.22;;;12.90;99.90;;;;;;5008721;28;20048;-52
2022/11/13 12:27:49;;;;;;;9.55;6.45;;;12.70;99.90;;;;;;5008496;28;20049;-50
2022/11/13 12:30:21;;;;;;;8.75;5.82;;;12.90;99.90;;;;;;5006523;28;20156;-52
2022/11/13 12:32:53;;;;;;;11.57;7.10;;;12.80;99.90;;;;;;5017440;28;20029;-53
2022/11/13 12:35:20;;;;;;;10.40;6.47;;;13.10;99.90;;;;;;5017344;28;20049;-52
2022/11/13 12:37:58;;;;;;;8.52;6.07;;;12.90;99.90;;;;;;5014425;28;20064;-48
2022/11/13 12:40:37;;;;;;;9.02;6.00;;;13.10;99.90;;;;;;5017428;28;20111;-53
2022/11/13 12:43:20;;;;;;;8.63;5.97;;;13.00;99.90;;;;;;5014253;28;20069;-48
2022/11/13 12:45:55;;;;;;;8.35;5.57;;;13.10;99.90;;;;;;5016849;28;20046;-53
2022/11/13 12:48:26;;;;;;;8.30;5.72;;;13.10;99.90;;;;;;5012712;28;20059;-49
2022/11/13 12:51:00;;;;;;;8.60;6.20;;;13.20;99.90;;;;;;5018550;28;20072;-50
2022/11/13 12:53:29;;;;;;;9.63;5.65;;;13.10;99.90;;;;;;5017245;28;20812;-52
2022/11/13 12:56:02;;;;;;;9.90;5.70;;;13.20;99.90;;;;;;5018879;28;20068;-51
2022/11/13 12:58:30;;;;;;;8.50;5.63;;;13.10;99.90;;;;;;5019962;28;20573;-52
2022/11/13 13:01:09;;;;;;;8.07;5.82;;;12.80;99.90;;;;;;5018714;28;20052;-49